Sandy Level, Virginia
Current Conditions -  °F | °C
As of 11:31 AM on Monday 26 Jan 2015 (Local Time) from KDAN Reporting Station
Overcast Overcast  
Wind Chill: 45°   Ceiling: 1500
Heat Index: 47°   Visibility: 10mi
Dew Point: 37°   Wind: 5mph
Humidity: 68%   Direction: 30°NNE
Pressure: 29.66"   Gusts: NA
Location:  36.96°N, 79.55°W
Report Text: KDAN 261631Z AUTO 03004KT 10SM OVC015 08/03 A2966 RMK AO2 T00830028
Loading
Personal Weather Stations






























Interactive Weather Map New forecast layout! Learn more

10-Day Weather Forecast

Advertisements
Track Severe Weather on mobile